sensor_id;sensor_type;location;lat;lon;timestamp;temperature;humidity
16732;DHT22;8484;50.904;9.192;2022-08-27T00:00:12;21.20;99.90
16732;DHT22;8484;50.904;9.192;2022-08-27T00:02:40;21.30;99.90
16732;DHT22;8484;50.904;9.192;2022-08-27T00:05:08;21.30;99.90
16732;DHT22;8484;50.904;9.192;2022-08-27T00:07:35;21.30;99.90
16732;DHT22;8484;50.904;9.192;2022-08-27T00:10:02;21.30;99.90
16732;DHT22;8484;50.904;9.192;2022-08-27T00:12:29;21.30;99.90
16732;DHT22;8484;50.904;9.192;2022-08-27T00:14:58;21.30;99.90
16732;DHT22;8484;50.904;9.192;2022-08-27T00:17:26;21.40;99.90
16732;DHT22;8484;50.904;9.192;2022-08-27T00:19:53;21.30;99.90
16732;DHT22;8484;50.904;9.192;2022-08-27T00:22:20;21.30;99.90
16732;DHT22;8484;50.904;9.192;2022-08-27T00:24:47;21.30;99.90
16732;DHT22;8484;50.904;9.192;2022-08-27T00:27:14;21.30;99.90
16732;DHT22;8484;50.904;9.192;2022-08-27T00:29:41;21.30;99.90
16732;DHT22;8484;50.904;9.192;2022-08-27T00:32:09;21.40;99.90
16732;DHT22;8484;50.904;9.192;2022-08-27T00:34:36;21.40;99.90
16732;DHT22;8484;50.904;9.192;2022-08-27T00:37:03;21.30;99.90
16732;DHT22;8484;50.904;9.192;2022-08-27T00:39:31;21.30;99.90
16732;DHT22;8484;50.904;9.192;2022-08-27T00:41:58;21.20;99.90
16732;DHT22;8484;50.904;9.192;2022-08-27T00:44:25;21.50;99.90
16732;DHT22;8484;50.904;9.192;2022-08-27T00:46:55;21.20;99.90
16732;DHT22;8484;50.904;9.192;2022-08-27T00:49:28;21.30;99.90
16732;DHT22;8484;50.904;9.192;2022-08-27T00:52:02;21.20;99.90
16732;DHT22;8484;50.904;9.192;2022-08-27T00:54:29;21.20;99.90
16732;DHT22;8484;50.904;9.192;2022-08-27T00:56:57;21.20;99.90
16732;DHT22;8484;50.904;9.192;2022-08-27T00:59:26;21.50;99.90
16732;DHT22;8484;50.904;9.192;2022-08-27T01:01:55;21.00;99.90
16732;DHT22;8484;50.904;9.192;2022-08-27T01:04:42;21.00;99.90
16732;DHT22;8484;50.904;9.192;2022-08-27T01:07:10;21.00;99.90
16732;DHT22;8484;50.904;9.192;2022-08-27T01:09:37;20.80;99.90
16732;DHT22;8484;50.904;9.192;2022-08-27T01:12:05;20.80;99.90
16732;DHT22;8484;50.904;9.192;2022-08-27T01:14:32;20.80;99.90
16732;DHT22;8484;50.904;9.192;2022-08-27T01:17:01;20.90;99.90
16732;DHT22;8484;50.904;9.192;2022-08-27T01:19:33;21.00;99.90
16732;DHT22;8484;50.904;9.192;2022-08-27T01:22:07;21.00;99.90
16732;DHT22;8484;50.904;9.192;2022-08-27T01:24:39;20.90;99.90
16732;DHT22;8484;50.904;9.192;2022-08-27T01:27:09;20.90;99.90
16732;DHT22;8484;50.904;9.192;2022-08-27T01:29:36;21.00;99.90
16732;DHT22;8484;50.904;9.192;2022-08-27T01:32:10;21.00;99.90
16732;DHT22;8484;50.904;9.192;2022-08-27T01:34:37;21.00;99.90
16732;DHT22;8484;50.904;9.192;2022-08-27T01:37:06;21.00;99.90
16732;DHT22;8484;50.904;9.192;2022-08-27T01:39:34;21.00;99.90
16732;DHT22;8484;50.904;9.192;2022-08-27T01:42:04;21.20;99.90
16732;DHT22;8484;50.904;9.192;2022-08-27T01:44:42;21.10;99.90
16732;DHT22;8484;50.904;9.192;2022-08-27T01:47:09;21.00;99.90
16732;DHT22;8484;50.904;9.192;2022-08-27T01:49:36;20.90;99.90
16732;DHT22;8484;50.904;9.192;2022-08-27T01:52:03;20.80;99.90
16732;DHT22;8484;50.904;9.192;2022-08-27T01:54:30;20.90;99.90
16732;DHT22;8484;50.904;9.192;2022-08-27T01:56:58;20.90;99.90
16732;DHT22;8484;50.904;9.192;2022-08-27T01:59:26;21.00;99.90
16732;DHT22;8484;50.904;9.192;2022-08-27T02:01:55;21.00;99.90
16732;DHT22;8484;50.904;9.192;2022-08-27T02:04:22;21.00;99.90
16732;DHT22;8484;50.904;9.192;2022-08-27T02:06:49;21.00;99.90
16732;DHT22;8484;50.904;9.192;2022-08-27T02:09:16;21.00;99.90
16732;DHT22;8484;50.904;9.192;2022-08-27T02:11:43;20.90;99.90
16732;DHT22;8484;50.904;9.192;2022-08-27T02:14:10;21.00;99.90
16732;DHT22;8484;50.904;9.192;2022-08-27T02:16:38;21.20;99.90
16732;DHT22;8484;50.904;9.192;2022-08-27T02:19:05;21.00;99.90
16732;DHT22;8484;50.904;9.192;2022-08-27T02:21:32;21.20;99.90
16732;DHT22;8484;50.904;9.192;2022-08-27T02:23:59;20.90;99.90
16732;DHT22;8484;50.904;9.192;2022-08-27T02:26:26;21.10;99.90
16732;DHT22;8484;50.904;9.192;2022-08-27T02:28:53;20.90;99.90
16732;DHT22;8484;50.904;9.192;2022-08-27T02:31:20;20.80;99.90
16732;DHT22;8484;50.904;9.192;2022-08-27T02:33:48;20.80;99.90
16732;DHT22;8484;50.904;9.192;2022-08-27T02:36:15;20.90;99.90
16732;DHT22;8484;50.904;9.192;2022-08-27T02:38:42;20.90;99.90
16732;DHT22;8484;50.904;9.192;2022-08-27T02:41:10;21.10;99.90
16732;DHT22;8484;50.904;9.192;2022-08-27T02:43:36;20.70;99.90
16732;DHT22;8484;50.904;9.192;2022-08-27T02:46:03;20.70;99.90
16732;DHT22;8484;50.904;9.192;2022-08-27T02:48:30;20.80;99.90
16732;DHT22;8484;50.904;9.192;2022-08-27T02:50:58;20.90;99.90
16732;DHT22;8484;50.904;9.192;2022-08-27T02:53:25;20.70;99.90
16732;DHT22;8484;50.904;9.192;2022-08-27T02:55:53;20.70;99.90
16732;DHT22;8484;50.904;9.192;2022-08-27T02:58:19;20.70;99.90
16732;DHT22;8484;50.904;9.192;2022-08-27T03:00:46;20.70;99.90
16732;DHT22;8484;50.904;9.192;2022-08-27T03:03:13;20.60;99.90
16732;DHT22;8484;50.904;9.192;2022-08-27T03:05:40;20.50;99.90
16732;DHT22;8484;50.904;9.192;2022-08-27T03:08:09;20.50;99.90
16732;DHT22;8484;50.904;9.192;2022-08-27T03:10:36;20.60;99.90
16732;DHT22;8484;50.904;9.192;2022-08-27T03:13:02;20.50;99.90
16732;DHT22;8484;50.904;9.192;2022-08-27T03:15:29;20.50;99.90
16732;DHT22;8484;50.904;9.192;2022-08-27T03:17:56;20.50;99.90
16732;DHT22;8484;50.904;9.192;2022-08-27T03:20:42;20.50;99.90
16732;DHT22;8484;50.904;9.192;2022-08-27T03:23:11;20.40;99.90
16732;DHT22;8484;50.904;9.192;2022-08-27T03:25:42;20.30;99.90
16732;DHT22;8484;50.904;9.192;2022-08-27T03:28:09;20.40;99.90
16732;DHT22;8484;50.904;9.192;2022-08-27T03:30:36;20.40;99.90
16732;DHT22;8484;50.904;9.192;2022-08-27T03:33:03;20.30;99.90
16732;DHT22;8484;50.904;9.192;2022-08-27T03:35:29;20.40;99.90
16732;DHT22;8484;50.904;9.192;2022-08-27T03:37:56;20.30;99.90
16732;DHT22;8484;50.904;9.192;2022-08-27T03:40:24;20.20;99.90
16732;DHT22;8484;50.904;9.192;2022-08-27T03:42:51;20.10;99.90
16732;DHT22;8484;50.904;9.192;2022-08-27T03:45:18;20.20;99.90
16732;DHT22;8484;50.904;9.192;2022-08-27T03:47:45;20.00;99.90
16732;DHT22;8484;50.904;9.192;2022-08-27T03:50:12;20.10;99.90
16732;DHT22;8484;50.904;9.192;2022-08-27T03:52:39;20.10;99.90
16732;DHT22;8484;50.904;9.192;2022-08-27T03:55:07;20.20;99.90
16732;DHT22;8484;50.904;9.192;2022-08-27T03:57:36;20.20;99.90
16732;DHT22;8484;50.904;9.192;2022-08-27T04:00:04;20.30;99.90
16732;DHT22;8484;50.904;9.192;2022-08-27T04:02:31;20.10;99.90
16732;DHT22;8484;50.904;9.192;2022-08-27T04:04:58;20.10;99.90
16732;DHT22;8484;50.904;9.192;2022-08-27T04:07:25;20.00;99.90
16732;DHT22;8484;50.904;9.192;2022-08-27T04:09:52;20.00;99.90
16732;DHT22;8484;50.904;9.192;2022-08-27T04:12:19;20.00;99.90
16732;DHT22;8484;50.904;9.192;2022-08-27T04:14:47;20.10;99.90
16732;DHT22;8484;50.904;9.192;2022-08-27T04:17:14;20.00;99.90
16732;DHT22;8484;50.904;9.192;2022-08-27T04:19:41;20.00;99.90
16732;DHT22;8484;50.904;9.192;2022-08-27T04:22:08;20.00;99.90
16732;DHT22;8484;50.904;9.192;2022-08-27T04:24:36;20.00;99.90
16732;DHT22;8484;50.904;9.192;2022-08-27T04:27:04;20.00;99.90
16732;DHT22;8484;50.904;9.192;2022-08-27T04:29:31;20.00;99.90
16732;DHT22;8484;50.904;9.192;2022-08-27T04:32:00;20.10;99.90
16732;DHT22;8484;50.904;9.192;2022-08-27T04:34:27;20.00;99.90
16732;DHT22;8484;50.904;9.192;2022-08-27T04:36:54;20.00;99.90
16732;DHT22;8484;50.904;9.192;2022-08-27T04:39:22;20.00;99.90
16732;DHT22;8484;50.904;9.192;2022-08-27T04:41:49;20.00;99.90
16732;DHT22;8484;50.904;9.192;2022-08-27T04:44:16;19.90;99.90
16732;DHT22;8484;50.904;9.192;2022-08-27T04:46:43;19.90;99.90
16732;DHT22;8484;50.904;9.192;2022-08-27T04:49:14;19.90;99.90
16732;DHT22;8484;50.904;9.192;2022-08-27T04:51:41;19.90;99.90
16732;DHT22;8484;50.904;9.192;2022-08-27T04:54:08;20.10;99.90
16732;DHT22;8484;50.904;9.192;2022-08-27T04:56:36;19.90;99.90
16732;DHT22;8484;50.904;9.192;2022-08-27T04:59:05;19.90;99.90
16732;DHT22;8484;50.904;9.192;2022-08-27T05:01:33;19.90;99.90
16732;DHT22;8484;50.904;9.192;2022-08-27T05:04:00;20.30;99.90
16732;DHT22;8484;50.904;9.192;2022-08-27T05:06:28;20.00;99.90
16732;DHT22;8484;50.904;9.192;2022-08-27T05:08:56;20.00;99.90
16732;DHT22;8484;50.904;9.192;2022-08-27T05:11:24;20.00;99.90
16732;DHT22;8484;50.904;9.192;2022-08-27T05:13:52;20.00;99.90
16732;DHT22;8484;50.904;9.192;2022-08-27T05:16:21;19.90;99.90
16732;DHT22;8484;50.904;9.192;2022-08-27T05:18:49;19.90;99.90
16732;DHT22;8484;50.904;9.192;2022-08-27T05:21:18;20.00;99.90
16732;DHT22;8484;50.904;9.192;2022-08-27T05:23:47;19.90;99.90
16732;DHT22;8484;50.904;9.192;2022-08-27T05:26:14;19.80;99.90
16732;DHT22;8484;50.904;9.192;2022-08-27T05:28:42;19.90;99.90
16732;DHT22;8484;50.904;9.192;2022-08-27T05:31:11;20.10;99.90
16732;DHT22;8484;50.904;9.192;2022-08-27T05:33:39;20.00;99.90
16732;DHT22;8484;50.904;9.192;2022-08-27T05:36:12;20.10;99.90
16732;DHT22;8484;50.904;9.192;2022-08-27T05:38:39;20.00;99.90
16732;DHT22;8484;50.904;9.192;2022-08-27T05:41:10;20.00;99.90
16732;DHT22;8484;50.904;9.192;2022-08-27T05:43:38;20.00;99.90
16732;DHT22;8484;50.904;9.192;2022-08-27T05:46:07;20.10;99.90
16732;DHT22;8484;50.904;9.192;2022-08-27T05:48:36;20.00;99.90
16732;DHT22;8484;50.904;9.192;2022-08-27T05:51:08;20.10;99.90
16732;DHT22;8484;50.904;9.192;2022-08-27T05:53:35;20.20;99.90
16732;DHT22;8484;50.904;9.192;2022-08-27T05:56:03;20.00;99.90
16732;DHT22;8484;50.904;9.192;2022-08-27T05:58:32;20.10;99.90
16732;DHT22;8484;50.904;9.192;2022-08-27T06:01:18;20.20;99.90
16732;DHT22;8484;50.904;9.192;2022-08-27T06:03:47;20.10;99.90
16732;DHT22;8484;50.904;9.192;2022-08-27T06:06:13;20.00;99.90
16732;DHT22;8484;50.904;9.192;2022-08-27T06:08:40;20.20;99.90
16732;DHT22;8484;50.904;9.192;2022-08-27T06:11:07;20.20;99.90
16732;DHT22;8484;50.904;9.192;2022-08-27T06:13:36;20.10;99.90
16732;DHT22;8484;50.904;9.192;2022-08-27T06:16:05;20.20;99.90
16732;DHT22;8484;50.904;9.192;2022-08-27T06:18:33;20.30;99.90
16732;DHT22;8484;50.904;9.192;2022-08-27T06:21:00;20.30;99.90
16732;DHT22;8484;50.904;9.192;2022-08-27T06:23:27;20.30;99.90
16732;DHT22;8484;50.904;9.192;2022-08-27T06:25:55;20.10;99.90
16732;DHT22;8484;50.904;9.192;2022-08-27T06:28:23;20.00;99.90
16732;DHT22;8484;50.904;9.192;2022-08-27T06:30:52;19.90;99.90
16732;DHT22;8484;50.904;9.192;2022-08-27T06:33:19;20.00;99.90
16732;DHT22;8484;50.904;9.192;2022-08-27T06:35:46;20.40;99.90
16732;DHT22;8484;50.904;9.192;2022-08-27T06:38:13;20.40;99.90
16732;DHT22;8484;50.904;9.192;2022-08-27T06:40:40;20.40;99.90
16732;DHT22;8484;50.904;9.192;2022-08-27T06:43:07;20.80;99.90
16732;DHT22;8484;50.904;9.192;2022-08-27T06:45:37;20.60;99.90
16732;DHT22;8484;50.904;9.192;2022-08-27T06:48:05;20.30;99.90
16732;DHT22;8484;50.904;9.192;2022-08-27T06:50:36;20.40;99.90
16732;DHT22;8484;50.904;9.192;2022-08-27T06:53:04;20.40;99.90
16732;DHT22;8484;50.904;9.192;2022-08-27T06:55:32;20.70;99.90
16732;DHT22;8484;50.904;9.192;2022-08-27T06:57:59;20.80;99.90
16732;DHT22;8484;50.904;9.192;2022-08-27T07:00:25;20.90;99.90
16732;DHT22;8484;50.904;9.192;2022-08-27T07:02:52;20.90;99.90
16732;DHT22;8484;50.904;9.192;2022-08-27T07:05:21;20.80;99.90
16732;DHT22;8484;50.904;9.192;2022-08-27T07:07:48;20.90;99.90
16732;DHT22;8484;50.904;9.192;2022-08-27T07:10:15;20.80;99.90
16732;DHT22;8484;50.904;9.192;2022-08-27T07:12:41;20.80;99.90
16732;DHT22;8484;50.904;9.192;2022-08-27T07:15:09;20.70;99.90
16732;DHT22;8484;50.904;9.192;2022-08-27T07:17:36;20.60;99.90
16732;DHT22;8484;50.904;9.192;2022-08-27T07:20:06;20.70;99.90
16732;DHT22;8484;50.904;9.192;2022-08-27T07:22:37;20.70;99.90
16732;DHT22;8484;50.904;9.192;2022-08-27T07:25:05;20.80;99.90
16732;DHT22;8484;50.904;9.192;2022-08-27T07:27:33;20.90;99.90
16732;DHT22;8484;50.904;9.192;2022-08-27T07:30:01;20.80;99.90
16732;DHT22;8484;50.904;9.192;2022-08-27T07:32:28;20.80;99.90
16732;DHT22;8484;50.904;9.192;2022-08-27T07:34:55;21.10;99.90
16732;DHT22;8484;50.904;9.192;2022-08-27T07:37:22;21.30;99.90
16732;DHT22;8484;50.904;9.192;2022-08-27T07:39:50;21.30;99.90
16732;DHT22;8484;50.904;9.192;2022-08-27T07:42:17;21.50;99.90
16732;DHT22;8484;50.904;9.192;2022-08-27T07:45:12;21.50;99.90
16732;DHT22;8484;50.904;9.192;2022-08-27T07:47:39;21.40;99.90
16732;DHT22;8484;50.904;9.192;2022-08-27T07:50:07;21.20;99.90
16732;DHT22;8484;50.904;9.192;2022-08-27T07:52:34;21.40;99.90
16732;DHT22;8484;50.904;9.192;2022-08-27T07:55:02;21.30;99.90
16732;DHT22;8484;50.904;9.192;2022-08-27T07:57:30;21.00;99.90
16732;DHT22;8484;50.904;9.192;2022-08-27T07:59:56;21.10;99.90
16732;DHT22;8484;50.904;9.192;2022-08-27T08:02:24;21.20;99.90
16732;DHT22;8484;50.904;9.192;2022-08-27T08:04:52;21.30;99.90
16732;DHT22;8484;50.904;9.192;2022-08-27T08:07:18;21.50;99.90
16732;DHT22;8484;50.904;9.192;2022-08-27T08:09:46;21.70;99.90
16732;DHT22;8484;50.904;9.192;2022-08-27T08:12:14;21.40;99.90
16732;DHT22;8484;50.904;9.192;2022-08-27T08:14:41;21.20;99.90
16732;DHT22;8484;50.904;9.192;2022-08-27T08:17:08;21.10;99.90
16732;DHT22;8484;50.904;9.192;2022-08-27T08:19:35;20.90;99.90
16732;DHT22;8484;50.904;9.192;2022-08-27T08:22:02;20.90;99.90
16732;DHT22;8484;50.904;9.192;2022-08-27T08:24:28;20.90;99.90
16732;DHT22;8484;50.904;9.192;2022-08-27T08:26:55;20.90;99.90
16732;DHT22;8484;50.904;9.192;2022-08-27T08:29:24;20.90;99.90
16732;DHT22;8484;50.904;9.192;2022-08-27T08:31:51;21.00;99.90
16732;DHT22;8484;50.904;9.192;2022-08-27T08:34:18;21.00;99.90
16732;DHT22;8484;50.904;9.192;2022-08-27T08:36:46;20.80;99.90
16732;DHT22;8484;50.904;9.192;2022-08-27T08:39:13;20.80;99.90
16732;DHT22;8484;50.904;9.192;2022-08-27T08:41:45;21.00;99.90
16732;DHT22;8484;50.904;9.192;2022-08-27T08:44:18;21.00;99.90
16732;DHT22;8484;50.904;9.192;2022-08-27T08:46:54;20.90;99.90
16732;DHT22;8484;50.904;9.192;2022-08-27T08:49:31;21.10;99.90
16732;DHT22;8484;50.904;9.192;2022-08-27T08:52:09;21.00;99.90
16732;DHT22;8484;50.904;9.192;2022-08-27T08:54:37;20.90;99.90
16732;DHT22;8484;50.904;9.192;2022-08-27T08:57:07;21.00;99.90
16732;DHT22;8484;50.904;9.192;2022-08-27T08:59:40;21.00;99.90
16732;DHT22;8484;50.904;9.192;2022-08-27T09:02:11;20.90;99.90
16732;DHT22;8484;50.904;9.192;2022-08-27T09:04:39;21.00;99.90
16732;DHT22;8484;50.904;9.192;2022-08-27T09:07:11;21.00;99.90
16732;DHT22;8484;50.904;9.192;2022-08-27T09:09:45;20.90;99.90
16732;DHT22;8484;50.904;9.192;2022-08-27T09:12:16;21.00;99.90
16732;DHT22;8484;50.904;9.192;2022-08-27T09:14:49;20.90;99.90
16732;DHT22;8484;50.904;9.192;2022-08-27T09:17:18;21.10;99.90
16732;DHT22;8484;50.904;9.192;2022-08-27T09:19:45;21.10;99.90
16732;DHT22;8484;50.904;9.192;2022-08-27T09:22:18;21.30;99.90
16732;DHT22;8484;50.904;9.192;2022-08-27T09:24:51;21.60;99.90
16732;DHT22;8484;50.904;9.192;2022-08-27T09:27:22;21.70;99.90
16732;DHT22;8484;50.904;9.192;2022-08-27T09:29:51;21.60;99.90
16732;DHT22;8484;50.904;9.192;2022-08-27T09:32:23;21.50;99.90
16732;DHT22;8484;50.904;9.192;2022-08-27T09:34:51;21.40;99.90
16732;DHT22;8484;50.904;9.192;2022-08-27T09:37:19;21.60;99.90
16732;DHT22;8484;50.904;9.192;2022-08-27T09:39:51;21.90;99.90
16732;DHT22;8484;50.904;9.192;2022-08-27T09:42:26;21.70;99.90
16732;DHT22;8484;50.904;9.192;2022-08-27T09:44:55;21.90;99.90
16732;DHT22;8484;50.904;9.192;2022-08-27T09:47:24;21.60;99.90
16732;DHT22;8484;50.904;9.192;2022-08-27T09:50:06;21.50;99.90
16732;DHT22;8484;50.904;9.192;2022-08-27T09:52:35;21.00;99.90
16732;DHT22;8484;50.904;9.192;2022-08-27T09:55:03;21.30;99.90
16732;DHT22;8484;50.904;9.192;2022-08-27T09:57:33;21.30;99.90
16732;DHT22;8484;50.904;9.192;2022-08-27T10:00:04;21.50;99.90
16732;DHT22;8484;50.904;9.192;2022-08-27T10:02:33;21.30;99.90
16732;DHT22;8484;50.904;9.192;2022-08-27T10:05:02;21.20;99.90
16732;DHT22;8484;50.904;9.192;2022-08-27T10:07:44;21.40;99.90
16732;DHT22;8484;50.904;9.192;2022-08-27T10:10:19;21.40;99.90
16732;DHT22;8484;50.904;9.192;2022-08-27T10:12:52;21.50;99.90
16732;DHT22;8484;50.904;9.192;2022-08-27T10:15:22;21.70;99.90
16732;DHT22;8484;50.904;9.192;2022-08-27T10:18:02;21.50;99.90
16732;DHT22;8484;50.904;9.192;2022-08-27T10:20:38;21.30;99.90
16732;DHT22;8484;50.904;9.192;2022-08-27T10:23:14;21.40;99.90
16732;DHT22;8484;50.904;9.192;2022-08-27T10:25:49;21.70;99.90
16732;DHT22;8484;50.904;9.192;2022-08-27T10:28:28;21.80;99.90
16732;DHT22;8484;50.904;9.192;2022-08-27T10:31:08;21.80;99.90
16732;DHT22;8484;50.904;9.192;2022-08-27T10:33:46;21.80;99.90
16732;DHT22;8484;50.904;9.192;2022-08-27T10:36:25;22.20;99.90
16732;DHT22;8484;50.904;9.192;2022-08-27T10:39:00;22.80;99.90
16732;DHT22;8484;50.904;9.192;2022-08-27T10:41:33;23.20;99.90
16732;DHT22;8484;50.904;9.192;2022-08-27T10:47:18;23.00;99.90
16732;DHT22;8484;50.904;9.192;2022-08-27T10:49:52;23.10;99.90
16732;DHT22;8484;50.904;9.192;2022-08-27T10:52:27;23.10;99.90
16732;DHT22;8484;50.904;9.192;2022-08-27T10:54:59;22.80;99.90
16732;DHT22;8484;50.904;9.192;2022-08-27T10:57:39;22.50;99.90
16732;DHT22;8484;50.904;9.192;2022-08-27T11:00:11;22.80;99.90
16732;DHT22;8484;50.904;9.192;2022-08-27T11:02:42;22.80;99.90
16732;DHT22;8484;50.904;9.192;2022-08-27T11:05:15;22.80;99.90
16732;DHT22;8484;50.904;9.192;2022-08-27T11:07:45;22.70;99.90
16732;DHT22;8484;50.904;9.192;2022-08-27T11:10:18;23.10;99.90
16732;DHT22;8484;50.904;9.192;2022-08-27T11:12:52;22.80;99.90
16732;DHT22;8484;50.904;9.192;2022-08-27T11:15:23;22.60;99.90
16732;DHT22;8484;50.904;9.192;2022-08-27T11:17:56;22.60;99.90
16732;DHT22;8484;50.904;9.192;2022-08-27T11:20:29;22.40;99.90
16732;DHT22;8484;50.904;9.192;2022-08-27T11:23:01;22.20;99.90
16732;DHT22;8484;50.904;9.192;2022-08-27T11:25:39;22.30;99.90
16732;DHT22;8484;50.904;9.192;2022-08-27T11:28:09;22.50;99.90
16732;DHT22;8484;50.904;9.192;2022-08-27T11:30:43;22.50;99.90
16732;DHT22;8484;50.904;9.192;2022-08-27T11:33:16;22.50;99.90
16732;DHT22;8484;50.904;9.192;2022-08-27T11:36:01;22.20;99.90
16732;DHT22;8484;50.904;9.192;2022-08-27T11:38:43;22.10;99.90
16732;DHT22;8484;50.904;9.192;2022-08-27T11:41:27;22.30;99.90
16732;DHT22;8484;50.904;9.192;2022-08-27T11:43:58;22.30;99.90
16732;DHT22;8484;50.904;9.192;2022-08-27T11:46:27;22.20;99.90
16732;DHT22;8484;50.904;9.192;2022-08-27T11:48:56;22.20;99.90
16732;DHT22;8484;50.904;9.192;2022-08-27T11:51:30;22.10;99.90
16732;DHT22;8484;50.904;9.192;2022-08-27T11:54:00;22.30;99.90
16732;DHT22;8484;50.904;9.192;2022-08-27T11:56:38;21.90;99.90
16732;DHT22;8484;50.904;9.192;2022-08-27T11:59:19;21.60;99.90
16732;DHT22;8484;50.904;9.192;2022-08-27T12:01:48;21.60;99.90
16732;DHT22;8484;50.904;9.192;2022-08-27T12:04:23;22.00;99.90
16732;DHT22;8484;50.904;9.192;2022-08-27T12:07:03;22.30;99.90
16732;DHT22;8484;50.904;9.192;2022-08-27T12:09:46;22.30;99.90
16732;DHT22;8484;50.904;9.192;2022-08-27T12:12:18;22.50;99.90
16732;DHT22;8484;50.904;9.192;2022-08-27T12:14:50;22.40;99.90
16732;DHT22;8484;50.904;9.192;2022-08-27T12:17:25;22.30;99.90
16732;DHT22;8484;50.904;9.192;2022-08-27T12:20:05;22.60;99.90
16732;DHT22;8484;50.904;9.192;2022-08-27T12:22:47;22.30;99.90
16732;DHT22;8484;50.904;9.192;2022-08-27T12:25:33;22.50;99.90
16732;DHT22;8484;50.904;9.192;2022-08-27T12:28:02;22.60;99.90
16732;DHT22;8484;50.904;9.192;2022-08-27T12:30:31;22.70;99.90
16732;DHT22;8484;50.904;9.192;2022-08-27T12:33:08;22.60;99.90
16732;DHT22;8484;50.904;9.192;2022-08-27T12:35:41;22.70;99.90
16732;DHT22;8484;50.904;9.192;2022-08-27T12:38:14;22.80;99.90
16732;DHT22;8484;50.904;9.192;2022-08-27T12:40:45;22.90;99.90
16732;DHT22;8484;50.904;9.192;2022-08-27T12:43:17;22.70;99.90
16732;DHT22;8484;50.904;9.192;2022-08-27T12:45:47;22.80;99.90
16732;DHT22;8484;50.904;9.192;2022-08-27T12:48:18;22.80;99.90
16732;DHT22;8484;50.904;9.192;2022-08-27T12:50:51;23.30;99.90
16732;DHT22;8484;50.904;9.192;2022-08-27T12:53:38;22.80;99.90
16732;DHT22;8484;50.904;9.192;2022-08-27T12:56:29;23.40;99.90
16732;DHT22;8484;50.904;9.192;2022-08-27T12:59:04;23.10;99.90
16732;DHT22;8484;50.904;9.192;2022-08-27T13:01:48;23.50;99.90
16732;DHT22;8484;50.904;9.192;2022-08-27T13:04:21;23.40;99.90
16732;DHT22;8484;50.904;9.192;2022-08-27T13:06:49;23.50;99.90
16732;DHT22;8484;50.904;9.192;2022-08-27T13:09:25;23.50;99.90
16732;DHT22;8484;50.904;9.192;2022-08-27T13:11:54;23.60;99.90
16732;DHT22;8484;50.904;9.192;2022-08-27T13:14:23;23.60;99.90
16732;DHT22;8484;50.904;9.192;2022-08-27T13:16:53;23.90;99.90
16732;DHT22;8484;50.904;9.192;2022-08-27T13:19:23;23.90;99.90
16732;DHT22;8484;50.904;9.192;2022-08-27T13:21:52;23.70;99.90
16732;DHT22;8484;50.904;9.192;2022-08-27T13:24:29;23.50;99.90
16732;DHT22;8484;50.904;9.192;2022-08-27T13:26:58;23.20;99.90
16732;DHT22;8484;50.904;9.192;2022-08-27T13:29:25;23.00;99.90
16732;DHT22;8484;50.904;9.192;2022-08-27T13:31:53;22.80;99.90
16732;DHT22;8484;50.904;9.192;2022-08-27T13:34:23;22.70;99.90
16732;DHT22;8484;50.904;9.192;2022-08-27T13:36:55;23.00;99.90
16732;DHT22;8484;50.904;9.192;2022-08-27T13:39:26;23.10;99.90
16732;DHT22;8484;50.904;9.192;2022-08-27T13:41:56;23.40;99.90
16732;DHT22;8484;50.904;9.192;2022-08-27T13:44:27;23.50;99.90
16732;DHT22;8484;50.904;9.192;2022-08-27T13:46:59;23.20;99.90
16732;DHT22;8484;50.904;9.192;2022-08-27T13:49:28;23.10;99.90
16732;DHT22;8484;50.904;9.192;2022-08-27T13:51:59;23.00;99.90
16732;DHT22;8484;50.904;9.192;2022-08-27T13:54:28;23.00;99.90
16732;DHT22;8484;50.904;9.192;2022-08-27T13:56:58;23.10;99.90
16732;DHT22;8484;50.904;9.192;2022-08-27T13:59:29;23.10;99.90
16732;DHT22;8484;50.904;9.192;2022-08-27T14:01:59;23.10;99.90
16732;DHT22;8484;50.904;9.192;2022-08-27T14:04:32;23.00;99.90
16732;DHT22;8484;50.904;9.192;2022-08-27T14:07:07;22.90;99.90
16732;DHT22;8484;50.904;9.192;2022-08-27T14:09:43;22.80;99.90
16732;DHT22;8484;50.904;9.192;2022-08-27T14:12:19;23.00;99.90
16732;DHT22;8484;50.904;9.192;2022-08-27T14:14:50;22.80;99.90
16732;DHT22;8484;50.904;9.192;2022-08-27T14:17:22;22.60;99.90
16732;DHT22;8484;50.904;9.192;2022-08-27T14:19:49;22.30;99.90
16732;DHT22;8484;50.904;9.192;2022-08-27T14:22:16;22.30;99.90
16732;DHT22;8484;50.904;9.192;2022-08-27T14:24:45;22.30;99.90
16732;DHT22;8484;50.904;9.192;2022-08-27T14:27:14;22.00;99.90
16732;DHT22;8484;50.904;9.192;2022-08-27T14:29:42;21.90;99.90
16732;DHT22;8484;50.904;9.192;2022-08-27T14:32:08;21.80;99.90
16732;DHT22;8484;50.904;9.192;2022-08-27T14:34:35;21.80;99.90
16732;DHT22;8484;50.904;9.192;2022-08-27T14:37:03;21.80;99.90
16732;DHT22;8484;50.904;9.192;2022-08-27T14:39:30;21.90;99.90
16732;DHT22;8484;50.904;9.192;2022-08-27T14:41:59;21.90;99.90
16732;DHT22;8484;50.904;9.192;2022-08-27T14:44:25;21.80;99.90
16732;DHT22;8484;50.904;9.192;2022-08-27T14:46:52;21.80;99.90
16732;DHT22;8484;50.904;9.192;2022-08-27T14:49:24;21.70;99.90
16732;DHT22;8484;50.904;9.192;2022-08-27T14:51:53;21.90;99.90
16732;DHT22;8484;50.904;9.192;2022-08-27T14:54:19;21.90;99.90
16732;DHT22;8484;50.904;9.192;2022-08-27T14:56:46;22.00;99.90
16732;DHT22;8484;50.904;9.192;2022-08-27T14:59:15;22.00;99.90
16732;DHT22;8484;50.904;9.192;2022-08-27T15:01:41;22.00;99.90
16732;DHT22;8484;50.904;9.192;2022-08-27T15:04:09;22.10;99.90
16732;DHT22;8484;50.904;9.192;2022-08-27T15:06:36;22.30;99.90
16732;DHT22;8484;50.904;9.192;2022-08-27T15:09:03;22.40;99.90
16732;DHT22;8484;50.904;9.192;2022-08-27T15:11:31;22.30;99.90
16732;DHT22;8484;50.904;9.192;2022-08-27T15:14:00;22.40;99.90
16732;DHT22;8484;50.904;9.192;2022-08-27T15:16:31;22.60;99.90
16732;DHT22;8484;50.904;9.192;2022-08-27T15:19:00;22.50;99.90
16732;DHT22;8484;50.904;9.192;2022-08-27T15:21:28;22.30;99.90
16732;DHT22;8484;50.904;9.192;2022-08-27T15:23:58;22.50;99.90
16732;DHT22;8484;50.904;9.192;2022-08-27T15:26:25;22.50;99.90
16732;DHT22;8484;50.904;9.192;2022-08-27T15:28:53;22.40;99.90
16732;DHT22;8484;50.904;9.192;2022-08-27T15:31:20;22.30;99.90
16732;DHT22;8484;50.904;9.192;2022-08-27T15:33:48;22.10;99.90
16732;DHT22;8484;50.904;9.192;2022-08-27T15:36:15;21.90;99.90
16732;DHT22;8484;50.904;9.192;2022-08-27T15:38:42;22.20;99.90
16732;DHT22;8484;50.904;9.192;2022-08-27T15:41:09;22.10;99.90
16732;DHT22;8484;50.904;9.192;2022-08-27T15:43:36;22.30;99.90
16732;DHT22;8484;50.904;9.192;2022-08-27T15:46:04;22.40;99.90
16732;DHT22;8484;50.904;9.192;2022-08-27T15:48:31;22.50;99.90
16732;DHT22;8484;50.904;9.192;2022-08-27T15:51:02;22.60;99.90
16732;DHT22;8484;50.904;9.192;2022-08-27T15:53:30;22.60;99.90
16732;DHT22;8484;50.904;9.192;2022-08-27T15:55:57;22.80;99.90
16732;DHT22;8484;50.904;9.192;2022-08-27T15:58:23;22.80;99.90
16732;DHT22;8484;50.904;9.192;2022-08-27T16:00:51;22.60;99.90
16732;DHT22;8484;50.904;9.192;2022-08-27T16:03:18;22.40;99.90